sensor_id;sensor_type;location;lat;lon;timestamp;temperature;humidity
7700;DHT22;3892;47.794;19.126;2023-07-13T00:00:57;29.40;52.30
7700;DHT22;3892;47.794;19.126;2023-07-13T00:03:25;29.30;52.50
7700;DHT22;3892;47.794;19.126;2023-07-13T00:05:57;29.30;52.50
7700;DHT22;3892;47.794;19.126;2023-07-13T00:08:26;29.20;53.00
7700;DHT22;3892;47.794;19.126;2023-07-13T00:10:54;29.20;53.40
7700;DHT22;3892;47.794;19.126;2023-07-13T00:13:22;29.20;53.00
7700;DHT22;3892;47.794;19.126;2023-07-13T00:15:50;29.20;52.90
7700;DHT22;3892;47.794;19.126;2023-07-13T00:18:22;29.30;52.80
7700;DHT22;3892;47.794;19.126;2023-07-13T00:20:50;29.20;53.10
7700;DHT22;3892;47.794;19.126;2023-07-13T00:23:19;29.20;53.00
7700;DHT22;3892;47.794;19.126;2023-07-13T00:25:49;29.10;53.30
7700;DHT22;3892;47.794;19.126;2023-07-13T00:28:18;29.10;53.40
7700;DHT22;3892;47.794;19.126;2023-07-13T00:30:53;29.10;53.70
7700;DHT22;3892;47.794;19.126;2023-07-13T00:33:23;29.10;53.70
7700;DHT22;3892;47.794;19.126;2023-07-13T00:35:53;29.10;53.80
7700;DHT22;3892;47.794;19.126;2023-07-13T00:38:22;29.00;53.90
7700;DHT22;3892;47.794;19.126;2023-07-13T00:40:50;29.10;54.00
7700;DHT22;3892;47.794;19.126;2023-07-13T00:43:20;29.10;54.30
7700;DHT22;3892;47.794;19.126;2023-07-13T00:46:24;28.90;54.00
7700;DHT22;3892;47.794;19.126;2023-07-13T00:48:56;28.70;54.20
7700;DHT22;3892;47.794;19.126;2023-07-13T00:51:30;28.50;54.80
7700;DHT22;3892;47.794;19.126;2023-07-13T00:54:00;28.30;54.90
7700;DHT22;3892;47.794;19.126;2023-07-13T00:56:32;28.30;55.00
7700;DHT22;3892;47.794;19.126;2023-07-13T00:59:02;28.40;54.60
7700;DHT22;3892;47.794;19.126;2023-07-13T01:01:30;28.50;54.70
7700;DHT22;3892;47.794;19.126;2023-07-13T01:04:00;28.60;54.70
7700;DHT22;3892;47.794;19.126;2023-07-13T01:06:28;28.70;54.40
7700;DHT22;3892;47.794;19.126;2023-07-13T01:08:58;28.80;54.20
7700;DHT22;3892;47.794;19.126;2023-07-13T01:11:27;28.90;54.20
7700;DHT22;3892;47.794;19.126;2023-07-13T01:13:55;28.90;54.20
7700;DHT22;3892;47.794;19.126;2023-07-13T01:16:26;29.00;54.20
7700;DHT22;3892;47.794;19.126;2023-07-13T01:18:55;29.10;53.90
7700;DHT22;3892;47.794;19.126;2023-07-13T01:21:27;29.10;53.60
7700;DHT22;3892;47.794;19.126;2023-07-13T01:23:55;29.10;53.50
7700;DHT22;3892;47.794;19.126;2023-07-13T01:26:24;29.10;54.10
7700;DHT22;3892;47.794;19.126;2023-07-13T01:28:52;29.20;53.40
7700;DHT22;3892;47.794;19.126;2023-07-13T01:31:23;29.20;53.20
7700;DHT22;3892;47.794;19.126;2023-07-13T01:33:51;29.20;53.00
7700;DHT22;3892;47.794;19.126;2023-07-13T01:36:19;29.20;53.10
7700;DHT22;3892;47.794;19.126;2023-07-13T01:38:49;29.20;53.00
7700;DHT22;3892;47.794;19.126;2023-07-13T01:41:17;29.20;53.00
7700;DHT22;3892;47.794;19.126;2023-07-13T01:43:45;29.20;52.90
7700;DHT22;3892;47.794;19.126;2023-07-13T01:46:13;29.20;52.90
7700;DHT22;3892;47.794;19.126;2023-07-13T01:48:48;29.20;52.90
7700;DHT22;3892;47.794;19.126;2023-07-13T01:51:17;29.20;52.70
7700;DHT22;3892;47.794;19.126;2023-07-13T01:53:45;29.20;52.70
7700;DHT22;3892;47.794;19.126;2023-07-13T01:56:14;29.10;52.60
7700;DHT22;3892;47.794;19.126;2023-07-13T01:58:43;29.10;52.60
7700;DHT22;3892;47.794;19.126;2023-07-13T02:01:12;29.10;52.40
7700;DHT22;3892;47.794;19.126;2023-07-13T02:03:40;29.00;52.20
7700;DHT22;3892;47.794;19.126;2023-07-13T02:06:08;29.00;52.00
7700;DHT22;3892;47.794;19.126;2023-07-13T02:08:37;29.00;52.10
7700;DHT22;3892;47.794;19.126;2023-07-13T02:11:05;29.00;52.00
7700;DHT22;3892;47.794;19.126;2023-07-13T02:13:34;29.00;52.20
7700;DHT22;3892;47.794;19.126;2023-07-13T02:16:03;29.00;52.40
7700;DHT22;3892;47.794;19.126;2023-07-13T02:18:31;28.90;52.40
7700;DHT22;3892;47.794;19.126;2023-07-13T02:20:59;28.80;52.10
7700;DHT22;3892;47.794;19.126;2023-07-13T02:23:27;28.70;52.20
7700;DHT22;3892;47.794;19.126;2023-07-13T02:25:56;28.70;52.30
7700;DHT22;3892;47.794;19.126;2023-07-13T02:28:24;28.70;52.60
7700;DHT22;3892;47.794;19.126;2023-07-13T02:30:53;28.60;52.40
7700;DHT22;3892;47.794;19.126;2023-07-13T02:33:22;28.70;52.60
7700;DHT22;3892;47.794;19.126;2023-07-13T02:35:50;28.60;52.50
7700;DHT22;3892;47.794;19.126;2023-07-13T02:38:18;28.70;52.70
7700;DHT22;3892;47.794;19.126;2023-07-13T02:40:47;28.60;52.70
7700;DHT22;3892;47.794;19.126;2023-07-13T02:43:15;28.60;52.90
7700;DHT22;3892;47.794;19.126;2023-07-13T02:45:44;28.50;53.50
7700;DHT22;3892;47.794;19.126;2023-07-13T02:48:14;28.40;53.40
7700;DHT22;3892;47.794;19.126;2023-07-13T02:50:44;28.40;53.20
7700;DHT22;3892;47.794;19.126;2023-07-13T02:53:12;28.50;53.20
7700;DHT22;3892;47.794;19.126;2023-07-13T02:55:40;28.50;53.30
7700;DHT22;3892;47.794;19.126;2023-07-13T02:58:14;28.50;53.10
7700;DHT22;3892;47.794;19.126;2023-07-13T03:00:43;28.40;53.50
7700;DHT22;3892;47.794;19.126;2023-07-13T03:03:14;28.20;53.90
7700;DHT22;3892;47.794;19.126;2023-07-13T03:05:44;28.00;54.10
7700;DHT22;3892;47.794;19.126;2023-07-13T03:08:17;28.00;54.60
7700;DHT22;3892;47.794;19.126;2023-07-13T03:10:45;28.00;54.10
7700;DHT22;3892;47.794;19.126;2023-07-13T03:13:13;28.10;54.00
7700;DHT22;3892;47.794;19.126;2023-07-13T03:15:42;28.10;53.90
7700;DHT22;3892;47.794;19.126;2023-07-13T03:18:10;28.10;53.90
7700;DHT22;3892;47.794;19.126;2023-07-13T03:20:39;28.10;53.90
7700;DHT22;3892;47.794;19.126;2023-07-13T03:23:07;28.10;53.80
7700;DHT22;3892;47.794;19.126;2023-07-13T03:25:35;28.00;53.80
7700;DHT22;3892;47.794;19.126;2023-07-13T03:28:04;28.10;53.70
7700;DHT22;3892;47.794;19.126;2023-07-13T03:30:32;28.00;54.10
7700;DHT22;3892;47.794;19.126;2023-07-13T03:33:00;28.00;54.10
7700;DHT22;3892;47.794;19.126;2023-07-13T03:35:28;28.00;53.80
7700;DHT22;3892;47.794;19.126;2023-07-13T03:37:58;28.00;53.70
7700;DHT22;3892;47.794;19.126;2023-07-13T03:40:27;28.00;53.60
7700;DHT22;3892;47.794;19.126;2023-07-13T03:42:55;28.00;53.30
7700;DHT22;3892;47.794;19.126;2023-07-13T03:45:23;28.10;53.30
7700;DHT22;3892;47.794;19.126;2023-07-13T03:47:51;28.10;53.50
7700;DHT22;3892;47.794;19.126;2023-07-13T03:50:19;28.10;53.60
7700;DHT22;3892;47.794;19.126;2023-07-13T03:52:47;28.10;53.30
7700;DHT22;3892;47.794;19.126;2023-07-13T03:55:16;28.10;53.40
7700;DHT22;3892;47.794;19.126;2023-07-13T03:57:44;28.20;53.70
7700;DHT22;3892;47.794;19.126;2023-07-13T04:00:13;28.20;53.40
7700;DHT22;3892;47.794;19.126;2023-07-13T04:02:42;28.30;53.40
7700;DHT22;3892;47.794;19.126;2023-07-13T04:05:10;28.20;53.30
7700;DHT22;3892;47.794;19.126;2023-07-13T04:07:38;28.30;53.50
7700;DHT22;3892;47.794;19.126;2023-07-13T04:10:07;28.40;53.70
7700;DHT22;3892;47.794;19.126;2023-07-13T04:12:37;28.40;53.60
7700;DHT22;3892;47.794;19.126;2023-07-13T04:15:06;28.50;53.60
7700;DHT22;3892;47.794;19.126;2023-07-13T04:17:35;28.50;53.60
7700;DHT22;3892;47.794;19.126;2023-07-13T04:20:04;28.60;54.20
7700;DHT22;3892;47.794;19.126;2023-07-13T04:22:32;28.60;53.50
7700;DHT22;3892;47.794;19.126;2023-07-13T04:25:01;28.60;53.50
7700;DHT22;3892;47.794;19.126;2023-07-13T04:27:29;28.70;53.30
7700;DHT22;3892;47.794;19.126;2023-07-13T04:29:58;28.60;53.20
7700;DHT22;3892;47.794;19.126;2023-07-13T04:32:26;28.60;53.10
7700;DHT22;3892;47.794;19.126;2023-07-13T04:34:54;28.50;53.00
7700;DHT22;3892;47.794;19.126;2023-07-13T04:37:24;28.40;53.50
7700;DHT22;3892;47.794;19.126;2023-07-13T04:39:52;28.40;53.30
7700;DHT22;3892;47.794;19.126;2023-07-13T04:42:20;28.40;53.60
7700;DHT22;3892;47.794;19.126;2023-07-13T04:44:48;28.40;53.60
7700;DHT22;3892;47.794;19.126;2023-07-13T04:47:18;28.40;53.00
7700;DHT22;3892;47.794;19.126;2023-07-13T04:49:46;28.40;52.70
7700;DHT22;3892;47.794;19.126;2023-07-13T04:52:14;28.30;52.70
7700;DHT22;3892;47.794;19.126;2023-07-13T04:54:42;28.30;52.70
7700;DHT22;3892;47.794;19.126;2023-07-13T04:57:10;28.30;52.80
7700;DHT22;3892;47.794;19.126;2023-07-13T04:59:39;28.30;52.90
7700;DHT22;3892;47.794;19.126;2023-07-13T05:02:07;28.30;52.90
7700;DHT22;3892;47.794;19.126;2023-07-13T05:04:36;28.30;52.80
7700;DHT22;3892;47.794;19.126;2023-07-13T05:07:05;28.30;53.10
7700;DHT22;3892;47.794;19.126;2023-07-13T05:09:33;28.30;53.10
7700;DHT22;3892;47.794;19.126;2023-07-13T05:12:01;28.30;52.90
7700;DHT22;3892;47.794;19.126;2023-07-13T05:14:29;28.30;52.90
7700;DHT22;3892;47.794;19.126;2023-07-13T05:16:57;28.40;52.80
7700;DHT22;3892;47.794;19.126;2023-07-13T05:19:26;28.20;52.70
7700;DHT22;3892;47.794;19.126;2023-07-13T05:21:55;28.10;53.10
7700;DHT22;3892;47.794;19.126;2023-07-13T05:24:23;28.00;53.60
7700;DHT22;3892;47.794;19.126;2023-07-13T05:26:52;27.90;54.10
7700;DHT22;3892;47.794;19.126;2023-07-13T05:29:21;27.70;54.40
7700;DHT22;3892;47.794;19.126;2023-07-13T05:31:49;27.50;54.60
7700;DHT22;3892;47.794;19.126;2023-07-13T05:34:17;27.50;54.90
7700;DHT22;3892;47.794;19.126;2023-07-13T05:36:46;27.30;55.10
7700;DHT22;3892;47.794;19.126;2023-07-13T05:39:15;27.20;54.60
7700;DHT22;3892;47.794;19.126;2023-07-13T05:41:43;27.20;54.50
7700;DHT22;3892;47.794;19.126;2023-07-13T05:44:12;27.10;54.40
7700;DHT22;3892;47.794;19.126;2023-07-13T05:46:40;26.90;54.50
7700;DHT22;3892;47.794;19.126;2023-07-13T05:49:08;26.80;54.60
7700;DHT22;3892;47.794;19.126;2023-07-13T05:51:36;26.50;54.60
7700;DHT22;3892;47.794;19.126;2023-07-13T05:54:04;26.50;55.00
7700;DHT22;3892;47.794;19.126;2023-07-13T05:56:33;26.50;55.30
7700;DHT22;3892;47.794;19.126;2023-07-13T05:59:01;26.50;55.30
7700;DHT22;3892;47.794;19.126;2023-07-13T06:01:30;26.70;55.80
7700;DHT22;3892;47.794;19.126;2023-07-13T06:03:58;26.50;55.20
7700;DHT22;3892;47.794;19.126;2023-07-13T06:06:26;26.40;55.30
7700;DHT22;3892;47.794;19.126;2023-07-13T06:08:55;26.40;55.20
7700;DHT22;3892;47.794;19.126;2023-07-13T06:11:26;26.40;55.70
7700;DHT22;3892;47.794;19.126;2023-07-13T06:14:00;26.40;55.50
7700;DHT22;3892;47.794;19.126;2023-07-13T06:16:28;26.30;55.30
7700;DHT22;3892;47.794;19.126;2023-07-13T06:18:56;26.30;55.70
7700;DHT22;3892;47.794;19.126;2023-07-13T06:21:24;26.40;55.60
7700;DHT22;3892;47.794;19.126;2023-07-13T06:23:52;26.40;55.70
7700;DHT22;3892;47.794;19.126;2023-07-13T06:26:21;26.40;55.80
7700;DHT22;3892;47.794;19.126;2023-07-13T06:28:49;26.40;55.60
7700;DHT22;3892;47.794;19.126;2023-07-13T06:31:18;26.40;55.80
7700;DHT22;3892;47.794;19.126;2023-07-13T06:33:46;26.40;55.50
7700;DHT22;3892;47.794;19.126;2023-07-13T06:36:15;26.40;55.40
7700;DHT22;3892;47.794;19.126;2023-07-13T06:38:43;26.40;55.30
7700;DHT22;3892;47.794;19.126;2023-07-13T06:41:11;26.30;55.60
7700;DHT22;3892;47.794;19.126;2023-07-13T06:43:39;26.40;55.80
7700;DHT22;3892;47.794;19.126;2023-07-13T06:46:08;26.50;55.60
7700;DHT22;3892;47.794;19.126;2023-07-13T06:48:38;26.20;55.40
7700;DHT22;3892;47.794;19.126;2023-07-13T06:51:07;26.10;55.50
7700;DHT22;3892;47.794;19.126;2023-07-13T06:53:36;26.00;55.50
7700;DHT22;3892;47.794;19.126;2023-07-13T06:56:04;25.80;55.60
7700;DHT22;3892;47.794;19.126;2023-07-13T06:58:34;25.80;55.70
7700;DHT22;3892;47.794;19.126;2023-07-13T07:01:02;26.00;55.30
7700;DHT22;3892;47.794;19.126;2023-07-13T07:03:30;26.00;55.50
7700;DHT22;3892;47.794;19.126;2023-07-13T07:06:13;26.00;55.30
7700;DHT22;3892;47.794;19.126;2023-07-13T07:08:42;26.20;55.30
7700;DHT22;3892;47.794;19.126;2023-07-13T07:11:12;26.20;56.30
7700;DHT22;3892;47.794;19.126;2023-07-13T07:13:40;26.20;56.40
7700;DHT22;3892;47.794;19.126;2023-07-13T07:16:09;26.30;56.50
7700;DHT22;3892;47.794;19.126;2023-07-13T07:18:37;26.40;54.80
7700;DHT22;3892;47.794;19.126;2023-07-13T07:21:07;26.40;55.50
7700;DHT22;3892;47.794;19.126;2023-07-13T07:23:35;26.10;55.40
7700;DHT22;3892;47.794;19.126;2023-07-13T07:26:03;26.30;56.10
7700;DHT22;3892;47.794;19.126;2023-07-13T07:28:31;26.40;55.50
7700;DHT22;3892;47.794;19.126;2023-07-13T07:31:02;26.40;55.30
7700;DHT22;3892;47.794;19.126;2023-07-13T07:33:33;26.60;55.20
7700;DHT22;3892;47.794;19.126;2023-07-13T07:36:01;26.80;55.50
7700;DHT22;3892;47.794;19.126;2023-07-13T07:38:34;26.90;54.80
7700;DHT22;3892;47.794;19.126;2023-07-13T07:41:03;26.90;54.70
7700;DHT22;3892;47.794;19.126;2023-07-13T07:43:34;27.10;54.80
7700;DHT22;3892;47.794;19.126;2023-07-13T07:46:03;27.10;54.50
7700;DHT22;3892;47.794;19.126;2023-07-13T07:48:31;27.10;54.90
7700;DHT22;3892;47.794;19.126;2023-07-13T07:50:59;27.10;54.60
7700;DHT22;3892;47.794;19.126;2023-07-13T07:53:27;27.10;54.00
7700;DHT22;3892;47.794;19.126;2023-07-13T07:55:58;27.10;54.70
7700;DHT22;3892;47.794;19.126;2023-07-13T07:58:29;27.10;54.10
7700;DHT22;3892;47.794;19.126;2023-07-13T08:01:03;27.10;54.10
7700;DHT22;3892;47.794;19.126;2023-07-13T08:03:35;27.20;54.20
7700;DHT22;3892;47.794;19.126;2023-07-13T08:06:06;27.20;54.40
7700;DHT22;3892;47.794;19.126;2023-07-13T08:08:37;27.20;54.00
7700;DHT22;3892;47.794;19.126;2023-07-13T08:11:08;27.30;54.40
7700;DHT22;3892;47.794;19.126;2023-07-13T08:13:39;27.30;54.30
7700;DHT22;3892;47.794;19.126;2023-07-13T08:16:07;27.10;55.30
7700;DHT22;3892;47.794;19.126;2023-07-13T08:18:35;27.30;54.10
7700;DHT22;3892;47.794;19.126;2023-07-13T08:21:04;27.30;54.30
7700;DHT22;3892;47.794;19.126;2023-07-13T08:23:33;27.30;54.80
7700;DHT22;3892;47.794;19.126;2023-07-13T08:26:02;27.10;54.30
7700;DHT22;3892;47.794;19.126;2023-07-13T08:28:33;27.30;54.30
7700;DHT22;3892;47.794;19.126;2023-07-13T08:31:02;27.40;54.20
7700;DHT22;3892;47.794;19.126;2023-07-13T08:33:30;27.50;54.30
7700;DHT22;3892;47.794;19.126;2023-07-13T08:35:58;27.60;54.00
7700;DHT22;3892;47.794;19.126;2023-07-13T08:38:26;27.70;54.20
7700;DHT22;3892;47.794;19.126;2023-07-13T08:40:56;27.80;54.00
7700;DHT22;3892;47.794;19.126;2023-07-13T08:43:28;27.80;53.80
7700;DHT22;3892;47.794;19.126;2023-07-13T08:46:02;27.90;53.50
7700;DHT22;3892;47.794;19.126;2023-07-13T08:48:34;27.90;53.40
7700;DHT22;3892;47.794;19.126;2023-07-13T08:51:10;28.00;53.60
7700;DHT22;3892;47.794;19.126;2023-07-13T08:53:43;28.00;53.30
7700;DHT22;3892;47.794;19.126;2023-07-13T08:56:18;28.10;53.20
7700;DHT22;3892;47.794;19.126;2023-07-13T08:58:50;28.10;53.20
7700;DHT22;3892;47.794;19.126;2023-07-13T09:01:28;28.20;53.10
7700;DHT22;3892;47.794;19.126;2023-07-13T09:04:04;28.30;52.50
7700;DHT22;3892;47.794;19.126;2023-07-13T09:06:43;28.40;52.60
7700;DHT22;3892;47.794;19.126;2023-07-13T09:09:22;28.40;52.30
7700;DHT22;3892;47.794;19.126;2023-07-13T09:11:56;28.60;52.50
7700;DHT22;3892;47.794;19.126;2023-07-13T09:14:39;28.60;52.30
7700;DHT22;3892;47.794;19.126;2023-07-13T09:17:16;28.60;52.50
7700;DHT22;3892;47.794;19.126;2023-07-13T09:19:49;28.60;51.80
7700;DHT22;3892;47.794;19.126;2023-07-13T09:22:21;28.60;52.20
7700;DHT22;3892;47.794;19.126;2023-07-13T09:24:56;28.80;51.70
7700;DHT22;3892;47.794;19.126;2023-07-13T09:27:30;28.90;51.70
7700;DHT22;3892;47.794;19.126;2023-07-13T09:30:11;29.00;51.90
7700;DHT22;3892;47.794;19.126;2023-07-13T09:32:51;29.10;51.60
7700;DHT22;3892;47.794;19.126;2023-07-13T09:35:22;29.20;51.60
7700;DHT22;3892;47.794;19.126;2023-07-13T09:37:58;29.30;52.10
7700;DHT22;3892;47.794;19.126;2023-07-13T09:40:35;29.30;51.00
7700;DHT22;3892;47.794;19.126;2023-07-13T09:43:05;29.30;50.70
7700;DHT22;3892;47.794;19.126;2023-07-13T09:45:36;29.40;51.20
7700;DHT22;3892;47.794;19.126;2023-07-13T09:48:11;29.50;50.80
7700;DHT22;3892;47.794;19.126;2023-07-13T09:50:40;29.60;50.10
7700;DHT22;3892;47.794;19.126;2023-07-13T09:53:12;29.70;50.90
7700;DHT22;3892;47.794;19.126;2023-07-13T09:55:42;29.70;49.70
7700;DHT22;3892;47.794;19.126;2023-07-13T09:58:13;29.80;49.50
7700;DHT22;3892;47.794;19.126;2023-07-13T10:00:42;29.90;49.90
7700;DHT22;3892;47.794;19.126;2023-07-13T10:03:17;29.90;50.90
7700;DHT22;3892;47.794;19.126;2023-07-13T10:05:49;30.00;50.00
7700;DHT22;3892;47.794;19.126;2023-07-13T10:08:23;30.00;49.70
7700;DHT22;3892;47.794;19.126;2023-07-13T10:10:58;30.00;49.40
7700;DHT22;3892;47.794;19.126;2023-07-13T10:13:29;30.10;50.00
7700;DHT22;3892;47.794;19.126;2023-07-13T10:15:59;30.10;49.10
7700;DHT22;3892;47.794;19.126;2023-07-13T10:18:33;30.20;48.30
7700;DHT22;3892;47.794;19.126;2023-07-13T10:21:11;30.20;48.20
7700;DHT22;3892;47.794;19.126;2023-07-13T10:23:54;30.20;48.30
7700;DHT22;3892;47.794;19.126;2023-07-13T10:26:29;30.30;48.20
7700;DHT22;3892;47.794;19.126;2023-07-13T10:29:01;30.30;48.10
7700;DHT22;3892;47.794;19.126;2023-07-13T10:31:31;30.50;48.00
7700;DHT22;3892;47.794;19.126;2023-07-13T10:34:00;30.50;48.00
7700;DHT22;3892;47.794;19.126;2023-07-13T10:36:33;30.60;47.80
7700;DHT22;3892;47.794;19.126;2023-07-13T10:39:04;30.70;47.60
7700;DHT22;3892;47.794;19.126;2023-07-13T10:41:36;30.70;46.80
7700;DHT22;3892;47.794;19.126;2023-07-13T10:44:10;30.70;46.80
7700;DHT22;3892;47.794;19.126;2023-07-13T10:46:41;30.80;47.50
7700;DHT22;3892;47.794;19.126;2023-07-13T10:49:13;30.90;47.10
7700;DHT22;3892;47.794;19.126;2023-07-13T10:51:42;30.90;47.30
7700;DHT22;3892;47.794;19.126;2023-07-13T10:54:14;31.00;47.50
7700;DHT22;3892;47.794;19.126;2023-07-13T10:56:46;31.10;47.40
7700;DHT22;3892;47.794;19.126;2023-07-13T10:59:20;31.10;46.70
7700;DHT22;3892;47.794;19.126;2023-07-13T11:01:56;31.10;46.60
7700;DHT22;3892;47.794;19.126;2023-07-13T11:04:29;31.10;46.70
7700;DHT22;3892;47.794;19.126;2023-07-13T11:07:20;31.20;46.70
7700;DHT22;3892;47.794;19.126;2023-07-13T11:09:52;31.10;47.00
7700;DHT22;3892;47.794;19.126;2023-07-13T11:12:51;31.20;46.50
7700;DHT22;3892;47.794;19.126;2023-07-13T11:15:44;31.30;47.00
7700;DHT22;3892;47.794;19.126;2023-07-13T11:18:21;31.40;46.70
7700;DHT22;3892;47.794;19.126;2023-07-13T11:20:51;31.50;46.90
7700;DHT22;3892;47.794;19.126;2023-07-13T11:23:30;31.60;46.00
7700;DHT22;3892;47.794;19.126;2023-07-13T11:26:00;31.60;45.80
7700;DHT22;3892;47.794;19.126;2023-07-13T11:28:31;31.70;45.30
7700;DHT22;3892;47.794;19.126;2023-07-13T11:31:03;31.80;45.40
7700;DHT22;3892;47.794;19.126;2023-07-13T11:33:52;31.80;45.40
7700;DHT22;3892;47.794;19.126;2023-07-13T11:36:24;31.90;45.20
7700;DHT22;3892;47.794;19.126;2023-07-13T11:39:01;31.70;45.20
7700;DHT22;3892;47.794;19.126;2023-07-13T11:41:31;32.00;45.90
7700;DHT22;3892;47.794;19.126;2023-07-13T11:44:06;32.00;45.30
7700;DHT22;3892;47.794;19.126;2023-07-13T11:46:35;32.10;45.40
7700;DHT22;3892;47.794;19.126;2023-07-13T11:49:05;32.20;45.70
7700;DHT22;3892;47.794;19.126;2023-07-13T11:51:36;32.20;45.80
7700;DHT22;3892;47.794;19.126;2023-07-13T11:54:06;32.20;44.80
7700;DHT22;3892;47.794;19.126;2023-07-13T11:56:39;32.30;45.20
7700;DHT22;3892;47.794;19.126;2023-07-13T11:59:12;32.30;44.80
7700;DHT22;3892;47.794;19.126;2023-07-13T12:01:44;32.40;44.60
7700;DHT22;3892;47.794;19.126;2023-07-13T12:04:21;32.50;44.20
7700;DHT22;3892;47.794;19.126;2023-07-13T12:06:56;32.50;44.40
7700;DHT22;3892;47.794;19.126;2023-07-13T12:09:27;32.50;44.30
7700;DHT22;3892;47.794;19.126;2023-07-13T12:11:57;32.50;44.40
7700;DHT22;3892;47.794;19.126;2023-07-13T12:14:27;32.50;44.50
7700;DHT22;3892;47.794;19.126;2023-07-13T12:16:56;32.50;45.30
7700;DHT22;3892;47.794;19.126;2023-07-13T12:19:26;32.60;44.30
7700;DHT22;3892;47.794;19.126;2023-07-13T12:21:58;32.70;44.80
7700;DHT22;3892;47.794;19.126;2023-07-13T12:24:27;32.80;44.40
7700;DHT22;3892;47.794;19.126;2023-07-13T12:27:00;32.80;44.00
7700;DHT22;3892;47.794;19.126;2023-07-13T12:29:28;32.80;43.80
7700;DHT22;3892;47.794;19.126;2023-07-13T12:31:57;32.80;43.70
7700;DHT22;3892;47.794;19.126;2023-07-13T12:34:26;32.90;44.10
7700;DHT22;3892;47.794;19.126;2023-07-13T12:36:58;33.00;44.20
7700;DHT22;3892;47.794;19.126;2023-07-13T12:39:32;33.10;44.10
7700;DHT22;3892;47.794;19.126;2023-07-13T12:42:16;33.10;43.60
7700;DHT22;3892;47.794;19.126;2023-07-13T12:44:46;33.20;43.60
7700;DHT22;3892;47.794;19.126;2023-07-13T12:47:15;33.30;43.00
7700;DHT22;3892;47.794;19.126;2023-07-13T12:49:48;33.40;43.40
7700;DHT22;3892;47.794;19.126;2023-07-13T12:52:22;33.40;43.60
7700;DHT22;3892;47.794;19.126;2023-07-13T12:54:55;33.50;42.50
7700;DHT22;3892;47.794;19.126;2023-07-13T12:57:30;33.50;43.20
7700;DHT22;3892;47.794;19.126;2023-07-13T12:59:58;33.60;43.20
7700;DHT22;3892;47.794;19.126;2023-07-13T13:02:30;33.70;43.70
7700;DHT22;3892;47.794;19.126;2023-07-13T13:04:58;33.70;43.60
7700;DHT22;3892;47.794;19.126;2023-07-13T13:07:28;33.60;42.00
7700;DHT22;3892;47.794;19.126;2023-07-13T13:09:56;33.60;42.90
7700;DHT22;3892;47.794;19.126;2023-07-13T13:12:24;33.60;42.20
7700;DHT22;3892;47.794;19.126;2023-07-13T13:14:53;33.70;42.50
7700;DHT22;3892;47.794;19.126;2023-07-13T13:17:22;33.70;42.10
7700;DHT22;3892;47.794;19.126;2023-07-13T13:19:53;33.70;41.30
7700;DHT22;3892;47.794;19.126;2023-07-13T13:22:22;33.70;41.30
7700;DHT22;3892;47.794;19.126;2023-07-13T13:24:51;33.70;40.90
7700;DHT22;3892;47.794;19.126;2023-07-13T13:27:22;33.70;41.50
7700;DHT22;3892;47.794;19.126;2023-07-13T13:29:51;33.80;41.20
7700;DHT22;3892;47.794;19.126;2023-07-13T13:32:19;33.80;40.40
7700;DHT22;3892;47.794;19.126;2023-07-13T13:34:48;33.80;40.60
7700;DHT22;3892;47.794;19.126;2023-07-13T13:37:19;33.70;40.40
7700;DHT22;3892;47.794;19.126;2023-07-13T13:39:49;33.80;40.20
7700;DHT22;3892;47.794;19.126;2023-07-13T13:42:25;33.80;40.20
7700;DHT22;3892;47.794;19.126;2023-07-13T13:44:55;33.70;40.20
7700;DHT22;3892;47.794;19.126;2023-07-13T13:47:30;33.70;39.70
7700;DHT22;3892;47.794;19.126;2023-07-13T13:49:59;33.80;40.60
7700;DHT22;3892;47.794;19.126;2023-07-13T13:52:27;33.80;40.40
7700;DHT22;3892;47.794;19.126;2023-07-13T13:54:55;33.70;40.10
7700;DHT22;3892;47.794;19.126;2023-07-13T13:57:25;33.80;40.00
7700;DHT22;3892;47.794;19.126;2023-07-13T13:59:53;33.80;39.70
7700;DHT22;3892;47.794;19.126;2023-07-13T14:02:25;33.80;40.30
7700;DHT22;3892;47.794;19.126;2023-07-13T14:04:56;33.90;40.20
7700;DHT22;3892;47.794;19.126;2023-07-13T14:07:24;34.00;40.30
7700;DHT22;3892;47.794;19.126;2023-07-13T14:09:54;34.00;39.40
7700;DHT22;3892;47.794;19.126;2023-07-13T14:12:23;34.10;40.20
7700;DHT22;3892;47.794;19.126;2023-07-13T14:14:54;34.20;39.90
7700;DHT22;3892;47.794;19.126;2023-07-13T14:17:24;34.20;39.40
7700;DHT22;3892;47.794;19.126;2023-07-13T14:19:54;34.20;39.60
7700;DHT22;3892;47.794;19.126;2023-07-13T14:22:24;34.20;39.60
7700;DHT22;3892;47.794;19.126;2023-07-13T14:24:53;34.20;39.80
7700;DHT22;3892;47.794;19.126;2023-07-13T14:27:24;34.10;39.70
7700;DHT22;3892;47.794;19.126;2023-07-13T14:29:54;34.10;40.10
7700;DHT22;3892;47.794;19.126;2023-07-13T14:32:22;34.00;40.60
7700;DHT22;3892;47.794;19.126;2023-07-13T14:34:50;34.00;40.60
7700;DHT22;3892;47.794;19.126;2023-07-13T14:37:19;33.90;41.00
7700;DHT22;3892;47.794;19.126;2023-07-13T14:39:50;33.90;40.90
7700;DHT22;3892;47.794;19.126;2023-07-13T14:42:19;34.00;40.80
7700;DHT22;3892;47.794;19.126;2023-07-13T14:44:47;33.90;40.10
7700;DHT22;3892;47.794;19.126;2023-07-13T14:47:18;34.00;40.50
7700;DHT22;3892;47.794;19.126;2023-07-13T14:49:46;34.00;40.90
7700;DHT22;3892;47.794;19.126;2023-07-13T14:52:16;33.90;40.50
7700;DHT22;3892;47.794;19.126;2023-07-13T14:54:45;33.90;40.40
7700;DHT22;3892;47.794;19.126;2023-07-13T14:57:17;33.90;40.20
7700;DHT22;3892;47.794;19.126;2023-07-13T14:59:45;33.80;40.70
7700;DHT22;3892;47.794;19.126;2023-07-13T15:02:25;33.80;40.50
7700;DHT22;3892;47.794;19.126;2023-07-13T15:04:55;33.70;40.20
7700;DHT22;3892;47.794;19.126;2023-07-13T15:07:24;33.70;40.80
7700;DHT22;3892;47.794;19.126;2023-07-13T15:09:52;33.70;40.60
7700;DHT22;3892;47.794;19.126;2023-07-13T15:12:22;33.60;40.70
7700;DHT22;3892;47.794;19.126;2023-07-13T15:14:51;33.50;40.70
7700;DHT22;3892;47.794;19.126;2023-07-13T15:17:30;33.50;41.00
7700;DHT22;3892;47.794;19.126;2023-07-13T15:19:59;33.40;40.60
7700;DHT22;3892;47.794;19.126;2023-07-13T15:22:28;33.40;40.80
7700;DHT22;3892;47.794;19.126;2023-07-13T15:24:57;33.40;41.40
7700;DHT22;3892;47.794;19.126;2023-07-13T15:27:27;33.40;41.20
7700;DHT22;3892;47.794;19.126;2023-07-13T15:29:55;33.40;41.20
7700;DHT22;3892;47.794;19.126;2023-07-13T15:32:26;33.40;41.00
7700;DHT22;3892;47.794;19.126;2023-07-13T15:34:54;33.30;41.20
7700;DHT22;3892;47.794;19.126;2023-07-13T15:37:22;33.30;41.10
7700;DHT22;3892;47.794;19.126;2023-07-13T15:39:50;33.30;40.70
7700;DHT22;3892;47.794;19.126;2023-07-13T15:42:20;33.30;41.60
7700;DHT22;3892;47.794;19.126;2023-07-13T15:44:49;33.30;40.80
7700;DHT22;3892;47.794;19.126;2023-07-13T15:47:17;33.30;41.20
7700;DHT22;3892;47.794;19.126;2023-07-13T15:49:47;33.30;41.30
7700;DHT22;3892;47.794;19.126;2023-07-13T15:52:19;33.20;41.00
7700;DHT22;3892;47.794;19.126;2023-07-13T15:54:49;33.30;42.00
7700;DHT22;3892;47.794;19.126;2023-07-13T15:57:18;33.20;43.40
7700;DHT22;3892;47.794;19.126;2023-07-13T15:59:46;33.20;42.00
7700;DHT22;3892;47.794;19.126;2023-07-13T16:02:18;33.20;42.40
7700;DHT22;3892;47.794;19.126;2023-07-13T16:04:47;33.20;41.30